Time;durP1;ratioP1;P1;durP2;ratioP2;P2;SDS_P1;SDS_P2;PMS_P1;PMS_P2;Temp;Humidity;BMP_temperature;BMP_pressure;BME280_temperature;BME280_humidity;BME280_pressure;Samples;Min_cycle;Max_cycle;Signal;HPM_P1;HPM_P2
2022/07/22 00:00:36;;;;;;;7.07;3.83;;;;;;;16.32;100.00;101651.59;5035463;28;20845;-45
2022/07/22 00:03:03;;;;;;;5.53;4.20;;;;;;;16.24;100.00;101656.38;5034466;28;20460;-47
2022/07/22 00:05:31;;;;;;;9.80;4.27;;;;;;;16.07;100.00;101650.59;5035073;28;20523;-45
2022/07/22 00:07:59;;;;;;;7.00;4.20;;;;;;;16.09;100.00;101661.19;5035005;28;20440;-46
2022/07/22 00:10:26;;;;;;;3.63;3.33;;;;;;;16.09;100.00;101656.63;5035103;28;20432;-46
2022/07/22 00:12:55;;;;;;;4.40;4.00;;;;;;;16.06;100.00;101662.44;5034266;28;21022;-43
2022/07/22 00:15:23;;;;;;;6.00;5.00;;;;;;;16.03;100.00;101658.31;5035004;28;20471;-44
2022/07/22 00:17:50;;;;;;;9.43;4.30;;;;;;;16.06;100.00;101662.44;5034624;28;20468;-42
2022/07/22 00:20:19;;;;;;;4.30;3.90;;;;;;;16.07;100.00;101652.50;5034742;28;20435;-42
2022/07/22 00:22:46;;;;;;;3.53;3.17;;;;;;;16.07;100.00;101656.00;5033979;28;21092;-43
2022/07/22 00:25:14;;;;;;;5.37;4.50;;;;;;;16.03;100.00;101660.16;5034924;28;20824;-42
2022/07/22 00:27:42;;;;;;;9.23;4.43;;;;;;;16.08;100.00;101662.19;5034728;28;20507;-42
2022/07/22 00:30:12;;;;;;;5.20;3.90;;;;;;;16.07;100.00;101660.56;5034573;28;20948;-46
2022/07/22 00:32:39;;;;;;;4.23;3.83;;;;;;;16.01;100.00;101654.97;5033947;28;20452;-45
2022/07/22 00:35:08;;;;;;;4.20;3.90;;;;;;;16.00;100.00;101650.66;5024862;28;20471;-46
2022/07/22 00:37:36;;;;;;;3.77;3.23;;;;;;;16.01;100.00;101654.97;5034387;28;20522;-44
2022/07/22 00:40:04;;;;;;;5.97;3.77;;;;;;;15.99;100.00;101662.44;5034542;28;20432;-45
2022/07/22 00:42:33;;;;;;;5.73;3.90;;;;;;;15.99;100.00;101661.59;5033822;28;20460;-43
2022/07/22 00:45:03;;;;;;;4.27;3.80;;;;;;;15.96;100.00;101657.47;5034369;28;20926;-42
2022/07/22 00:47:33;;;;;;;4.70;3.87;;;;;;;15.98;100.00;101663.47;5034543;28;20459;-45
2022/07/22 00:50:00;;;;;;;4.60;3.10;;;;;;;15.98;100.00;101654.56;5034303;28;20436;-42
2022/07/22 00:52:28;;;;;;;3.93;3.50;;;;;;;15.99;100.00;101659.75;5033578;28;20498;-43
2022/07/22 00:54:57;;;;;;;4.33;3.93;;;;;;;15.93;100.00;101660.59;5034331;28;20767;-43
2022/07/22 00:57:24;;;;;;;3.70;3.50;;;;;;;15.95;100.00;101666.56;5034122;28;20456;-47
2022/07/22 00:59:52;;;;;;;3.83;3.53;;;;;;;15.94;100.00;101664.09;5034107;28;20436;-42
2022/07/22 01:02:20;;;;;;;4.07;3.63;;;;;;;15.94;100.00;101661.41;5033322;28;20475;-45
2022/07/22 01:04:49;;;;;;;4.17;3.67;;;;;;;15.93;100.00;101659.75;5034168;28;20440;-43
2022/07/22 01:07:17;;;;;;;9.60;4.27;;;;;;;15.91;100.00;101667.22;5034010;28;20452;-44
2022/07/22 01:09:45;;;;;;;4.50;4.10;;;;;;;15.93;100.00;101660.59;5034255;28;20427;-42
2022/07/22 01:12:14;;;;;;;4.03;3.63;;;;;;;15.92;100.00;101668.84;5033349;28;20464;-44
2022/07/22 01:14:42;;;;;;;5.70;4.10;;;;;;;15.92;100.00;101669.69;5033611;28;20436;-43
2022/07/22 01:17:09;;;;;;;7.50;3.80;;;;;;;15.90;100.00;101650.25;5033525;28;20477;-42
2022/07/22 01:19:37;;;;;;;3.60;3.30;;;;;;;15.89;100.00;101650.44;5033845;28;20440;-44
2022/07/22 01:22:07;;;;;;;4.83;4.10;;;;;;;15.88;100.00;101662.25;5033161;28;21010;-42
2022/07/22 01:24:34;;;;;;;4.83;4.10;;;;;;;15.86;100.00;101658.94;5033617;28;20436;-45
2022/07/22 01:27:03;;;;;;;5.20;4.80;;;;;;;15.80;100.00;101660.59;5033538;28;20452;-42
2022/07/22 01:29:30;;;;;;;4.70;4.10;;;;;;;15.75;100.00;101665.78;5033361;28;20428;-44
2022/07/22 01:31:58;;;;;;;10.70;4.67;;;;;;;15.75;100.00;101665.78;5063961;23;20847;-50
2022/07/22 01:34:25;;;;;;;8.70;4.97;;;;;;;15.72;100.00;101658.13;5033174;28;20432;-44
2022/07/22 01:36:53;;;;;;;5.53;5.03;;;;;;;15.74;100.00;101655.25;5033317;28;20798;-43
2022/07/22 01:39:22;;;;;;;7.47;5.33;;;;;;;15.73;100.00;101657.09;5033300;28;20455;-46
2022/07/22 01:41:50;;;;;;;9.30;4.23;;;;;;;15.75;100.00;101663.09;5032679;28;21058;-46
2022/07/22 01:44:18;;;;;;;9.27;4.67;;;;;;;15.75;100.00;101663.09;5033257;28;20435;-46
2022/07/22 01:46:45;;;;;;;9.93;4.00;;;;;;;15.78;100.00;101664.53;5032936;28;20443;-49
2022/07/22 01:49:14;;;;;;;3.97;3.60;;;;;;;15.78;100.00;101662.66;5033170;28;20813;-44
2022/07/22 01:51:42;;;;;;;5.20;4.43;;;;;;;15.83;100.00;101660.16;5032557;28;20468;-48
2022/07/22 01:54:10;;;;;;;16.87;4.93;;;;;;;15.84;100.00;101661.00;5032898;28;20797;-44
2022/07/22 01:56:39;;;;;;;8.17;4.63;;;;;;;15.85;100.00;101658.13;5032857;28;20475;-47
2022/07/22 01:59:07;;;;;;;9.43;4.17;;;;;;;15.87;100.00;101657.91;5033152;28;20436;-47
2022/07/22 02:01:35;;;;;;;7.67;4.50;;;;;;;15.88;100.00;101659.56;5032308;28;20460;-43
2022/07/22 02:04:02;;;;;;;6.33;4.20;;;;;;;15.93;100.00;101657.06;5032529;28;20917;-44
2022/07/22 02:06:31;;;;;;;8.63;4.67;;;;;;;15.95;100.00;101655.81;5032940;28;20443;-46
2022/07/22 02:08:58;;;;;;;7.67;4.83;;;;;;;15.97;100.00;101652.94;5032703;28;20428;-48
2022/07/22 02:11:27;;;;;;;4.20;3.80;;;;;;;15.99;100.00;101648.97;5032180;28;20502;-43
2022/07/22 02:13:56;;;;;;;5.63;4.20;;;;;;;16.00;100.00;101647.13;5032565;28;20428;-46
2022/07/22 02:16:24;;;;;;;5.50;4.10;;;;;;;15.97;100.00;101651.06;5032605;28;20567;-46
2022/07/22 02:18:52;;;;;;;7.87;4.80;;;;;;;15.96;100.00;101649.41;5032588;28;20521;-47
2022/07/22 02:21:22;;;;;;;9.37;5.27;;;;;;;15.99;100.00;101648.16;5031951;28;20535;-45
2022/07/22 02:23:49;;;;;;;7.73;5.07;;;;;;;15.99;100.00;101648.97;5032376;28;20428;-46
2022/07/22 02:26:17;;;;;;;10.70;5.37;;;;;;;15.94;100.00;101639.91;5032622;28;20439;-50
2022/07/22 02:28:45;;;;;;;9.60;6.50;;;;;;;15.97;100.00;101651.06;5032493;28;20429;-47
2022/07/22 02:31:14;;;;;;;11.60;5.20;;;;;;;15.99;100.00;101658.91;5031798;28;20491;-45
2022/07/22 02:33:42;;;;;;;11.80;5.77;;;;;;;15.97;100.00;101650.25;5027083;28;20805;-46
2022/07/22 02:36:10;;;;;;;11.83;5.70;;;;;;;16.00;100.00;101653.34;5024290;28;20468;-43
2022/07/22 02:38:38;;;;;;;14.37;5.93;;;;;;;16.02;100.00;101653.09;5032375;28;20828;-43
2022/07/22 02:41:06;;;;;;;7.93;4.87;;;;;;;16.04;100.00;101659.94;5031750;28;20452;-45
2022/07/22 02:43:34;;;;;;;13.13;5.93;;;;;;;16.03;100.00;101660.16;5031999;28;20436;-47
2022/07/22 02:46:01;;;;;;;13.77;6.37;;;;;;;16.02;100.00;101656.63;5032087;28;20945;-44
2022/07/22 02:48:30;;;;;;;10.70;6.03;;;;;;;16.04;100.00;101651.84;5031909;28;20436;-45
2022/07/22 02:50:58;;;;;;;12.33;6.63;;;;;;;16.02;100.00;101653.94;5031685;28;20464;-48
2022/07/22 02:53:25;;;;;;;11.77;5.87;;;;;;;16.04;100.00;101654.56;5031837;28;20439;-43
2022/07/22 02:55:53;;;;;;;11.97;6.57;;;;;;;16.03;100.00;101650.22;5032067;28;20438;-47
2022/07/22 02:58:21;;;;;;;16.23;6.60;;;;;;;16.02;100.00;101653.94;5031295;28;20805;-49
2022/07/22 03:00:48;;;;;;;11.50;7.10;;;;;;;16.00;100.00;101661.41;5031889;28;20452;-47
2022/07/22 03:03:16;;;;;;;13.60;7.27;;;;;;;16.00;100.00;101660.56;5031259;28;20468;-48
2022/07/22 03:05:45;;;;;;;17.70;7.80;;;;;;;16.01;100.00;101663.03;5031961;28;20433;-43
2022/07/22 03:08:13;;;;;;;14.57;7.70;;;;;;;15.94;100.00;101659.56;5031777;28;20438;-49
2022/07/22 03:10:40;;;;;;;12.27;7.80;;;;;;;15.98;100.00;101660.78;5031833;28;20503;-45
2022/07/22 03:13:08;;;;;;;19.90;7.47;;;;;;;15.99;100.00;101650.84;5031163;28;20460;-43
2022/07/22 03:15:35;;;;;;;11.43;7.77;;;;;;;16.01;100.00;101660.34;5031565;28;20428;-44
2022/07/22 03:18:03;;;;;;;14.23;8.33;;;;;;;16.02;100.00;101661.19;5031815;28;20476;-46
2022/07/22 03:20:31;;;;;;;13.17;6.50;;;;;;;16.02;100.00;101659.31;5031886;28;20449;-44
2022/07/22 03:23:00;;;;;;;9.30;6.30;;;;;;;16.01;100.00;101664.91;5031106;28;20470;-46
2022/07/22 03:25:30;;;;;;;14.33;6.57;;;;;;;16.05;100.00;101664.28;5031771;28;20446;-49
2022/07/22 03:27:58;;;;;;;16.40;8.10;;;;;;;16.03;100.00;101669.06;5031700;28;20431;-48
2022/07/22 03:30:25;;;;;;;13.67;6.30;;;;;;;16.02;100.00;101658.50;5031595;28;20416;-47
2022/07/22 03:32:53;;;;;;;16.70;7.57;;;;;;;16.01;100.00;101660.34;5026207;28;20473;-45
2022/07/22 03:35:21;;;;;;;15.20;7.97;;;;;;;15.96;100.00;101662.84;5023511;28;20424;-46
2022/07/22 03:37:49;;;;;;;16.60;7.97;;;;;;;15.96;100.00;101657.47;5031441;28;20511;-45
2022/07/22 03:40:18;;;;;;;16.30;8.07;;;;;;;15.96;100.00;101659.34;5031479;28;20943;-46
2022/07/22 03:42:45;;;;;;;12.07;7.20;;;;;;;15.98;100.00;101662.63;5030720;28;20471;-45
2022/07/22 03:45:13;;;;;;;16.30;7.43;;;;;;;15.97;100.00;101656.44;5031891;28;20444;-45
2022/07/22 03:47:41;;;;;;;14.67;7.40;;;;;;;16.01;100.00;101662.22;5031568;28;20432;-46
2022/07/22 03:50:09;;;;;;;12.87;7.23;;;;;;;16.07;100.00;101661.38;5031536;28;20454;-45
2022/07/22 03:52:37;;;;;;;13.47;6.83;;;;;;;16.05;100.00;101669.66;5030876;28;20456;-49
2022/07/22 03:55:06;;;;;;;13.87;6.73;;;;;;;16.09;100.00;101667.38;5031582;28;20464;-50
2022/07/22 03:57:35;;;;;;;11.60;7.00;;;;;;;16.09;100.00;101661.19;5031183;28;20482;-44
2022/07/22 04:00:04;;;;;;;12.97;6.80;;;;;;;16.06;100.00;101662.44;5031309;28;20436;-44
2022/07/22 04:02:31;;;;;;;15.93;7.40;;;;;;;16.03;100.00;101668.22;5030675;28;20468;-44
2022/07/22 04:04:59;;;;;;;17.40;6.50;;;;;;;16.07;100.00;101669.44;5031546;28;20460;-44
2022/07/22 04:07:27;;;;;;;19.73;8.13;;;;;;;16.07;100.00;101674.81;5031453;28;20432;-49
2022/07/22 04:10:04;;;;;;;17.80;7.47;;;;;;;16.05;100.00;101671.53;5032545;28;20428;-45
2022/07/22 04:12:35;;;;;;;21.77;7.10;;;;;;;16.04;100.00;101668.00;5034211;28;20456;-47
2022/07/22 04:15:03;;;;;;;12.90;5.80;;;;;;;16.06;100.00;101670.50;5034872;28;20921;-44
2022/07/22 04:17:30;;;;;;;14.73;6.60;;;;;;;16.10;100.00;101670.91;5034861;28;20475;-46
2022/07/22 04:19:59;;;;;;;13.83;6.90;;;;;;;15.99;100.00;101672.38;5034782;28;20436;-47
2022/07/22 04:22:26;;;;;;;19.47;6.07;;;;;;;16.05;100.00;101663.47;5033903;28;20468;-47
2022/07/22 04:24:55;;;;;;;25.23;7.80;;;;;;;16.05;100.00;101676.91;5034874;28;20436;-45
2022/07/22 04:27:23;;;;;;;15.10;6.57;;;;;;;16.05;100.00;101672.34;5034758;28;20945;-47
2022/07/22 04:29:52;;;;;;;20.60;7.33;;;;;;;16.13;100.00;101673.19;5034614;28;20975;-45
2022/07/22 04:32:20;;;;;;;14.23;7.10;;;;;;;16.16;100.00;101668.19;5031803;28;20829;-48
2022/07/22 04:34:48;;;;;;;19.97;7.63;;;;;;;16.18;100.00;101673.38;5023537;28;20822;-46
2022/07/22 04:37:16;;;;;;;25.43;7.80;;;;;;;16.25;100.00;101666.09;5034579;28;20482;-46
2022/07/22 04:39:43;;;;;;;18.97;7.07;;;;;;;16.29;100.00;101665.47;5034397;28;20435;-48
2022/07/22 04:42:11;;;;;;;14.30;6.63;;;;;;;16.31;100.00;101666.06;5033801;28;20865;-44
2022/07/22 04:44:39;;;;;;;20.37;7.00;;;;;;;16.42;100.00;101670.00;5034302;28;21146;-46
2022/07/22 04:47:08;;;;;;;14.33;7.00;;;;;;;16.52;100.00;101649.63;5034520;28;20442;-44
2022/07/22 04:49:36;;;;;;;9.80;6.30;;;;;;;16.58;100.00;101653.38;5034129;28;20436;-43
2022/07/22 04:52:04;;;;;;;14.17;6.50;;;;;;;16.62;100.00;101659.16;5033651;28;20562;-44
2022/07/22 04:54:32;;;;;;;16.33;7.17;;;;;;;16.66;100.00;101660.41;5034279;28;20441;-46
2022/07/22 04:57:00;;;;;;;20.60;8.20;;;;;;;16.63;99.83;101655.44;5034186;28;20436;-49
2022/07/22 04:59:27;;;;;;;15.93;6.50;;;;;;;16.73;100.00;101656.63;5034210;28;20439;-45
2022/07/22 05:01:55;;;;;;;14.77;7.00;;;;;;;16.79;100.00;101654.94;5033387;28;21238;-47
2022/07/22 05:04:24;;;;;;;15.33;6.40;;;;;;;16.85;99.56;101654.06;5034039;28;20458;-43
2022/07/22 05:06:52;;;;;;;20.87;7.10;;;;;;;16.93;99.03;101662.75;5034081;28;20428;-47
2022/07/22 05:09:19;;;;;;;19.57;7.10;;;;;;;17.07;99.48;101658.09;5033971;28;20428;-48
2022/07/22 05:11:47;;;;;;;14.37;6.97;;;;;;;17.17;98.89;101646.84;5030683;28;20480;-47
2022/07/22 05:14:14;;;;;;;12.67;6.10;;;;;;;17.19;97.27;101655.53;5022897;28;20464;-47
2022/07/22 05:16:42;;;;;;;12.77;5.43;;;;;;;17.31;96.64;101651.09;5012966;28;20949;-44
2022/07/22 05:19:10;;;;;;;10.30;5.87;;;;;;;17.32;95.70;101650.06;5013788;28;20472;-49
2022/07/22 05:21:39;;;;;;;11.53;6.53;;;;;;;17.35;95.30;101655.81;5012781;28;20473;-43
2022/07/22 05:24:07;;;;;;;15.47;6.70;;;;;;;17.50;96.11;101652.81;5012450;28;20443;-46
2022/07/22 05:26:35;;;;;;;13.40;6.10;;;;;;;17.53;93.37;101650.47;5013525;28;20531;-44
2022/07/22 05:29:02;;;;;;;15.97;6.73;;;;;;;17.67;92.73;101659.34;5013651;28;20436;-46
2022/07/22 05:31:30;;;;;;;18.33;7.00;;;;;;;17.81;92.83;101651.94;5013177;28;20873;-43
2022/07/22 05:33:58;;;;;;;12.87;5.63;;;;;;;17.85;91.75;101656.69;5021547;28;20847;-46
2022/07/22 05:36:26;;;;;;;13.70;6.50;;;;;;;17.97;92.15;101652.22;5028033;28;20431;-44
2022/07/22 05:38:55;;;;;;;24.10;7.77;;;;;;;18.02;90.74;101651.53;5032859;28;20479;-45
2022/07/22 05:41:23;;;;;;;13.63;6.03;;;;;;;18.12;90.04;101654.53;5032232;28;20483;-45
2022/07/22 05:43:51;;;;;;;19.47;6.07;;;;;;;18.22;89.22;101647.56;5032881;28;20439;-46
2022/07/22 05:46:19;;;;;;;13.43;5.77;;;;;;;18.23;88.66;101668.13;5033402;28;20787;-45
2022/07/22 05:48:47;;;;;;;12.70;5.37;;;;;;;18.31;88.75;101656.19;5033104;28;20941;-47
2022/07/22 05:51:15;;;;;;;9.80;6.00;;;;;;;18.18;85.95;101667.16;5032638;28;20458;-46
2022/07/22 05:53:43;;;;;;;9.20;5.10;;;;;;;18.25;87.67;101667.88;5024912;28;20440;-46
2022/07/22 05:56:12;;;;;;;11.37;6.30;;;;;;;18.21;87.28;101674.78;5024625;28;20446;-48
2022/07/22 05:58:41;;;;;;;16.23;6.97;;;;;;;18.19;86.85;101668.78;5033112;28;20836;-44
2022/07/22 06:01:09;;;;;;;14.87;6.03;;;;;;;18.15;86.79;101676.53;5032574;28;20820;-44
2022/07/22 06:03:38;;;;;;;23.90;6.27;;;;;;;18.15;86.65;101681.91;5028390;28;20432;-46
2022/07/22 06:06:08;;;;;;;13.40;5.77;;;;;;;18.09;87.44;101663.91;5024407;28;20978;-44
2022/07/22 06:08:36;;;;;;;12.50;5.43;;;;;;;18.13;87.46;101675.06;5032696;28;20933;-44
2022/07/22 06:11:04;;;;;;;16.50;5.83;;;;;;;18.13;86.53;101680.47;5031949;28;20451;-46
2022/07/22 06:13:33;;;;;;;13.27;5.63;;;;;;;18.11;86.18;101678.00;5032628;28;20441;-45
2022/07/22 06:16:01;;;;;;;16.67;6.50;;;;;;;18.20;85.68;101673.13;5032613;28;20431;-43
2022/07/22 06:18:29;;;;;;;12.67;5.10;;;;;;;18.24;84.78;101669.78;5028286;28;20475;-49
2022/07/22 06:20:57;;;;;;;14.03;5.43;;;;;;;18.23;84.78;101681.63;5024155;28;20990;-46
2022/07/22 06:23:25;;;;;;;13.50;6.80;;;;;;;18.35;85.45;101678.16;5031972;28;20466;-43
2022/07/22 06:25:53;;;;;;;14.07;6.20;;;;;;;18.29;84.69;101677.19;5032606;28;20797;-43
2022/07/22 06:28:20;;;;;;;9.10;5.80;;;;;;;18.28;84.09;101680.94;5032625;28;20436;-49
2022/07/22 06:30:49;;;;;;;15.80;6.37;;;;;;;18.31;85.29;101668.88;5032320;28;20853;-45
2022/07/22 06:33:17;;;;;;;9.27;5.30;;;;;;;18.35;84.73;101678.16;5026919;28;20504;-49
2022/07/22 06:35:44;;;;;;;12.00;6.17;;;;;;;18.37;84.58;101678.78;5023918;28;20432;-47
2022/07/22 06:38:12;;;;;;;15.00;6.00;;;;;;;18.19;83.08;101679.56;5032208;28;20801;-46
2022/07/22 06:40:56;;;;;;;12.40;4.53;;;;;;;18.40;84.79;101683.75;5032226;28;20853;-43
2022/07/22 06:43:24;;;;;;;11.77;5.33;;;;;;;18.89;84.37;101686.25;5031668;28;21007;-47
2022/07/22 06:45:53;;;;;;;16.77;5.60;;;;;;;19.35;80.14;101677.50;5032070;28;20473;-45
2022/07/22 06:48:21;;;;;;;21.53;5.50;;;;;;;19.44;75.79;101686.13;5031937;28;20825;-43
2022/07/22 06:50:49;;;;;;;17.33;5.73;;;;;;;19.12;77.79;101680.94;5031651;28;20986;-47
2022/07/22 06:53:20;;;;;;;12.67;6.33;;;;;;;19.23;77.59;101684.75;5031376;28;20470;-46
2022/07/22 06:55:48;;;;;;;10.10;4.67;;;;;;;18.58;79.18;101686.44;5031823;28;20987;-46
2022/07/22 06:58:15;;;;;;;11.43;5.10;;;;;;;18.38;79.29;101694.75;5031735;28;20436;-48
2022/07/22 07:00:43;;;;;;;14.77;7.07;;;;;;;18.03;83.45;101699.91;5031508;28;20542;-43
2022/07/22 07:03:12;;;;;;;16.47;6.73;;;;;;;17.91;83.43;101693.56;5031264;28;20460;-45
2022/07/22 07:06:00;;;;;;;12.07;5.17;;;;;;;17.75;87.27;101696.00;5031607;28;20431;-44
2022/07/22 07:08:28;;;;;;;16.10;6.10;;;;;;;17.78;86.59;101695.53;5031970;28;20884;-43
2022/07/22 07:10:55;;;;;;;9.63;5.17;;;;;;;17.90;84.59;101704.56;5023738;28;20810;-48
2022/07/22 07:13:23;;;;;;;11.90;5.53;;;;;;;18.06;85.03;101712.94;5025430;28;20497;-48
2022/07/22 07:15:51;;;;;;;13.57;6.37;;;;;;;18.29;81.48;101701.50;5031709;28;20431;-47
2022/07/22 07:18:19;;;;;;;18.20;5.80;;;;;;;18.77;79.46;101699.72;5031615;28;20440;-45
2022/07/22 07:20:48;;;;;;;18.53;6.53;;;;;;;19.30;80.36;101707.09;5031674;28;20459;-44
2022/07/22 07:23:16;;;;;;;12.17;5.33;;;;;;;19.71;77.56;101706.28;5031093;28;20471;-45
2022/07/22 07:25:43;;;;;;;9.53;5.10;;;;;;;19.75;74.71;101708.28;5031381;28;20490;-43
2022/07/22 07:28:11;;;;;;;12.77;5.07;;;;;;;19.53;73.53;101703.66;5031756;28;20535;-44
2022/07/22 07:30:38;;;;;;;17.20;6.03;;;;;;;19.31;75.13;101716.84;5031642;28;20823;-43
2022/07/22 07:33:06;;;;;;;10.00;4.73;;;;;;;19.42;76.66;101715.25;5026160;28;20463;-45
2022/07/22 07:35:35;;;;;;;13.77;5.23;;;;;;;19.23;76.42;101720.69;5023310;28;20430;-43
2022/07/22 07:38:03;;;;;;;14.20;5.50;;;;;;;19.64;75.79;101717.22;5031402;28;20439;-44
2022/07/22 07:40:31;;;;;;;12.17;5.40;;;;;;;20.05;73.87;101729.84;5031588;28;20485;-44
2022/07/22 07:42:58;;;;;;;9.50;4.57;;;;;;;20.15;71.92;101721.97;5030690;28;20509;-43
2022/07/22 07:45:31;;;;;;;8.30;4.60;;;;;;;20.25;70.23;101722.22;5034066;28;20554;-49
2022/07/22 07:47:58;;;;;;;10.33;4.87;;;;;;;19.63;70.18;101730.97;5035235;28;20936;-45
2022/07/22 07:50:26;;;;;;;16.10;5.03;;;;;;;19.07;72.32;101726.75;5035150;28;20925;-46
2022/07/22 07:52:55;;;;;;;16.00;5.50;;;;;;;18.91;75.69;101732.78;5034439;28;20479;-48
2022/07/22 07:55:24;;;;;;;13.10;5.47;;;;;;;19.11;74.91;101733.38;5035569;28;20431;-44
2022/07/22 07:57:51;;;;;;;7.80;4.93;;;;;;;19.34;75.09;101732.63;5035379;28;20436;-46
2022/07/22 08:00:26;;;;;;;9.53;5.40;;;;;;;19.22;71.60;101732.59;5034959;28;20467;-43
2022/07/22 08:02:55;;;;;;;6.50;5.27;;;;;;;19.21;72.10;101730.09;5034632;28;20798;-48
2022/07/22 08:05:23;;;;;;;15.80;6.03;;;;;;;19.25;73.07;101742.13;5035002;28;20921;-48
2022/07/22 08:07:52;;;;;;;6.77;5.27;;;;;;;19.32;72.15;101735.53;5035330;28;20805;-46
2022/07/22 08:10:22;;;;;;;18.03;5.97;;;;;;;19.43;71.81;101738.56;5035006;28;20837;-47
2022/07/22 08:13:09;;;;;;;13.13;4.77;;;;;;;19.51;70.77;101743.63;5034302;28;20817;-46
2022/07/22 08:15:37;;;;;;;24.80;5.57;;;;;;;19.64;71.05;101749.69;5034770;28;20890;-46
2022/07/22 08:18:06;;;;;;;11.20;5.20;;;;;;;19.82;69.84;101751.47;5035048;28;20489;-44
2022/07/22 08:20:34;;;;;;;9.50;4.87;;;;;;;19.87;69.59;101744.31;5034642;28;20974;-48
2022/07/22 08:23:01;;;;;;;9.73;4.60;;;;;;;19.77;69.60;101751.38;5034059;28;20460;-47
2022/07/22 08:25:31;;;;;;;14.30;4.50;;;;;;;18.99;72.94;101762.22;5034713;28;20439;-46
2022/07/22 08:27:59;;;;;;;9.70;5.40;;;;;;;18.69;75.30;101758.66;5034798;28;20947;-47
2022/07/22 08:30:28;;;;;;;14.70;4.53;;;;;;;18.67;77.06;101758.84;5034501;28;20533;-45
2022/07/22 08:32:57;;;;;;;12.77;4.57;;;;;;;18.61;74.71;101764.31;5029488;28;20460;-45
2022/07/22 08:35:24;;;;;;;13.37;4.30;;;;;;;18.71;72.24;101768.19;5026469;28;20427;-44
2022/07/22 08:37:52;;;;;;;6.40;4.60;;;;;;;18.58;73.15;101768.31;5034634;28;20438;-47
2022/07/22 08:40:20;;;;;;;7.27;4.23;;;;;;;18.63;72.34;101773.88;5034361;28;20566;-44
2022/07/22 08:42:50;;;;;;;11.43;4.53;;;;;;;18.72;71.55;101764.44;5033661;28;20463;-45
2022/07/22 08:45:19;;;;;;;9.90;5.03;;;;;;;18.51;71.75;101769.44;5034532;28;20446;-45
2022/07/22 08:47:47;;;;;;;8.00;5.13;;;;;;;18.24;72.76;101776.94;5034241;28;20438;-44
2022/07/22 08:50:15;;;;;;;10.23;5.17;;;;;;;18.17;75.72;101778.88;5034254;28;20423;-43
2022/07/22 08:52:43;;;;;;;13.27;5.00;;;;;;;17.99;75.66;101781.50;5033607;28;20836;-46
2022/07/22 08:55:11;;;;;;;14.83;5.60;;;;;;;17.81;78.75;101784.97;5034070;28;20428;-45
2022/07/22 08:57:44;;;;;;;11.30;5.47;;;;;;;17.91;79.01;101782.63;5033222;28;20971;-43
2022/07/22 09:00:16;;;;;;;7.53;4.23;;;;;;;17.97;78.84;101784.44;5034143;28;20848;-46
2022/07/22 09:02:44;;;;;;;16.47;5.40;;;;;;;17.65;80.07;101794.41;5033565;28;20514;-47
2022/07/22 09:05:14;;;;;;;8.00;4.80;;;;;;;17.61;80.00;101792.38;5034123;28;20427;-47
2022/07/22 09:08:02;;;;;;;9.37;4.83;;;;;;;17.75;80.39;101787.72;5034079;28;20453;-48
2022/07/22 09:10:32;;;;;;;7.83;5.47;;;;;;;17.83;78.78;101795.56;5033895;28;20983;-47
2022/07/22 09:13:02;;;;;;;7.07;5.07;;;;;;;17.81;76.01;101787.69;5033184;28;20466;-48
2022/07/22 09:18:03;;;;;;;13.90;4.90;;;;;;;18.25;73.64;101782.09;4953737;29;20549;-46
2022/07/22 09:20:35;;;;;;;7.60;5.67;;;;;;;18.57;72.51;101782.88;4955798;29;20475;-42
2022/07/22 09:23:09;;;;;;;12.60;5.20;;;;;;;18.83;72.11;101791.72;4955068;28;20467;-44
2022/07/22 09:25:39;;;;;;;7.90;4.53;;;;;;;19.05;70.31;101792.94;4955848;29;20431;-43
2022/07/22 09:28:13;;;;;;;10.77;4.90;;;;;;;19.01;69.81;101799.84;4956339;29;20438;-43
2022/07/22 09:30:47;;;;;;;10.73;4.90;;;;;;;19.41;69.98;101792.91;4955695;29;20477;-44
2022/07/22 09:33:18;;;;;;;8.83;4.87;;;;;;;19.79;67.15;101784.44;4954737;28;20489;-43
2022/07/22 09:35:46;;;;;;;6.57;4.20;;;;;;;19.63;64.64;101774.25;4955383;28;21041;-44
2022/07/22 09:38:19;;;;;;;5.07;4.63;;;;;;;19.43;64.92;101774.56;4955411;29;20488;-43
2022/07/22 09:40:47;;;;;;;5.67;4.50;;;;;;;19.85;66.27;101778.09;4955452;28;20533;-43
2022/07/22 09:43:17;;;;;;;7.97;6.90;;;;;;;20.49;64.48;101773.69;4954506;28;20551;-45
2022/07/22 09:45:48;;;;;;;9.53;6.27;;;;;;;20.44;61.46;101774.38;4955335;28;20438;-48
2022/07/22 09:48:19;;;;;;;5.80;5.30;;;;;;;20.13;59.78;101788.25;4955195;28;20948;-43
2022/07/22 09:50:48;;;;;;;7.13;6.53;;;;;;;20.71;61.88;101780.13;4955322;29;20432;-46
2022/07/22 09:53:16;;;;;;;5.37;4.87;;;;;;;20.88;58.46;101781.03;4954311;28;20466;-44
2022/07/22 09:55:44;;;;;;;6.23;5.00;;;;;;;20.96;58.10;101780.66;4955217;28;20428;-43
2022/07/22 09:58:12;;;;;;;6.07;4.40;;;;;;;20.56;59.57;101777.91;4955161;29;20804;-43
2022/07/22 10:00:41;;;;;;;7.17;4.90;;;;;;;21.01;58.44;101777.22;4954964;28;20825;-44
2022/07/22 10:03:12;;;;;;;6.77;4.73;;;;;;;21.26;57.87;101781.31;4954244;28;20544;-48
2022/07/22 10:05:42;;;;;;;5.30;4.33;;;;;;;21.49;58.29;101781.19;4954692;29;21003;-43
2022/07/22 10:08:10;;;;;;;6.00;4.80;;;;;;;21.72;56.53;101787.56;4954448;28;20443;-45
2022/07/22 10:10:39;;;;;;;9.80;5.13;;;;;;;21.17;56.27;101796.31;4954887;29;20431;-44
2022/07/22 10:13:08;;;;;;;6.07;4.70;;;;;;;21.46;59.34;101783.56;4953896;28;20478;-44
2022/07/22 10:15:38;;;;;;;6.83;4.67;;;;;;;21.39;57.03;101796.44;4954449;29;20451;-43
2022/07/22 10:18:07;;;;;;;6.93;4.40;;;;;;;21.64;55.76;101775.22;4954690;28;20439;-44
2022/07/22 10:20:36;;;;;;;8.43;4.67;;;;;;;21.87;55.72;101774.25;4954439;28;20485;-45
2022/07/22 10:23:06;;;;;;;4.70;4.10;;;;;;;22.13;55.79;101770.09;4953844;28;20467;-42
2022/07/22 10:25:53;;;;;;;8.07;5.03;;;;;;;22.36;56.97;101780.78;4954580;29;20431;-42
2022/07/22 10:28:26;;;;;;;4.40;4.00;;;;;;;22.65;55.76;101779.56;4953168;28;20460;-43
2022/07/22 10:31:08;;;;;;;7.50;4.90;;;;;;;22.64;55.84;101774.38;4954733;29;20430;-42
2022/07/22 10:33:37;;;;;;;4.57;3.63;;;;;;;22.73;54.99;101781.84;4954247;28;20455;-43
2022/07/22 10:36:05;;;;;;;9.10;4.77;;;;;;;22.72;54.53;101777.50;4954324;29;20471;-46
2022/07/22 10:38:34;;;;;;;11.00;4.23;;;;;;;23.06;53.81;101778.19;4954264;29;20435;-43
2022/07/22 10:41:04;;;;;;;6.43;4.50;;;;;;;23.02;52.55;101785.22;4953836;28;20481;-45
2022/07/22 10:43:46;;;;;;;6.77;4.63;;;;;;;22.99;54.46;101783.84;4953843;29;20435;-44
2022/07/22 10:46:14;;;;;;;7.57;4.20;;;;;;;23.06;53.89;101780.91;4954107;29;20448;-44
2022/07/22 10:48:48;;;;;;;14.50;4.50;;;;;;;22.98;52.60;101789.53;4954045;28;20964;-47
2022/07/22 10:51:17;;;;;;;8.70;5.57;;;;;;;22.10;55.79;101789.59;4953875;28;20431;-46
2022/07/22 10:53:55;;;;;;;9.33;5.37;;;;;;;22.10;57.30;101792.31;4953757;29;20435;-45
2022/07/22 10:56:26;;;;;;;5.43;4.93;;;;;;;22.32;56.86;101802.19;4953946;29;20487;-42
2022/07/22 10:58:59;;;;;;;6.03;4.53;;;;;;;22.36;55.42;101794.34;4953892;29;20494;-44
2022/07/22 11:01:30;;;;;;;7.07;4.43;;;;;;;22.36;54.51;101792.47;4953730;28;20467;-46
2022/07/22 11:04:10;;;;;;;4.27;3.73;;;;;;;22.48;53.79;101789.66;4953713;28;20427;-46
2022/07/22 11:06:46;;;;;;;5.30;4.80;;;;;;;22.08;55.04;101789.84;4953736;29;20462;-44
2022/07/22 11:09:16;;;;;;;4.63;4.03;;;;;;;21.88;54.88;101793.06;4954021;28;20462;-44
2022/07/22 11:11:46;;;;;;;5.00;4.57;;;;;;;21.68;56.97;101802.72;4953423;28;20467;-43
2022/07/22 11:14:26;;;;;;;4.43;3.97;;;;;;;21.61;56.79;101797.44;4953697;29;20936;-42
2022/07/22 11:16:56;;;;;;;4.83;4.43;;;;;;;21.61;57.53;101804.75;4953664;29;20473;-46
2022/07/22 11:19:25;;;;;;;5.80;4.43;;;;;;;21.68;57.58;101800.81;4953281;28;20441;-43
2022/07/22 11:21:54;;;;;;;6.70;4.20;;;;;;;21.62;56.93;101803.69;4953301;28;20471;-43
2022/07/22 11:24:25;;;;;;;9.53;4.07;;;;;;;21.73;55.89;101795.47;4953782;28;20443;-46
2022/07/22 11:26:54;;;;;;;6.00;4.30;;;;;;;21.85;56.05;101792.69;4953759;29;20466;-46